Time;durP1;ratioP1;P1;durP2;ratioP2;P2;SDS_P1;SDS_P2;PMS_P1;PMS_P2;Temp;Humidity;BMP_temperature;BMP_pressure;BME280_temperature;BME280_humidity;BME280_pressure;Samples;Min_cycle;Max_cycle;Signal;HPM_P1;HPM_P2
2022/09/28 00:01:25;;;;;;;0.80;0.80;;;;;;;11.05;79.23;92492.03;5091587;28;20093;-33
2022/09/28 00:03:54;;;;;;;1.20;1.10;;;;;;;11.03;79.45;92489.84;5091560;28;20032;-33
2022/09/28 00:06:23;;;;;;;1.85;1.75;;;;;;;10.98;78.97;92490.13;5091212;28;20047;-33
2022/09/28 00:08:49;;;;;;;0.40;0.40;;;;;;;10.96;78.64;92493.44;5083521;28;20103;-33
2022/09/28 00:11:16;;;;;;;0.68;0.68;;;;;;;10.84;78.04;92477.97;5070887;28;20028;-33
2022/09/28 00:13:42;;;;;;;1.05;1.05;;;;;;;10.85;78.28;92488.44;5071127;28;20024;-33
2022/09/28 00:16:13;;;;;;;0.90;0.90;;;;;;;10.88;77.96;92490.06;5070357;28;20028;-33
2022/09/28 00:18:39;;;;;;;0.30;0.30;;;;;;;10.68;78.89;92493.31;5070795;28;20101;-33
2022/09/28 00:21:11;;;;;;;4.28;2.05;;;;;;;10.83;77.72;92487.59;5070702;28;20020;-33
2022/09/28 00:24:11;;;;;;;0.75;0.75;;;;;;;10.83;77.16;92482.06;5070686;28;20035;-33
2022/09/28 00:26:23;;;;;;;1.38;1.27;;;;;;;10.68;78.82;92482.97;5084103;28;20588;-33
2022/09/28 00:28:52;;;;;;;2.33;2.15;;;;;;;10.70;78.90;92477.59;5081788;28;20025;-33
2022/09/28 00:31:17;;;;;;;0.52;0.52;;;;;;;10.68;79.33;92480.94;5090504;28;20032;-33
2022/09/28 00:33:43;;;;;;;0.40;0.40;;;;;;;10.64;80.09;92483.41;5090740;28;20043;-33
2022/09/28 00:36:09;;;;;;;1.45;1.35;;;;;;;10.57;79.38;92478.69;5090729;28;20082;-33
2022/09/28 00:38:34;;;;;;;2.28;1.38;;;;;;;10.58;79.75;92482.94;5091012;28;20035;-33
2022/09/28 00:41:00;;;;;;;0.88;0.88;;;;;;;10.41;80.14;92482.97;5090946;28;20035;-33
2022/09/28 00:43:25;;;;;;;0.95;0.95;;;;;;;10.41;80.34;92476.72;5090900;28;20100;-33
2022/09/28 00:46:17;;;;;;;1.13;1.10;;;;;;;10.50;79.43;92473.28;5090900;28;20074;-33
2022/09/28 00:48:58;;;;;;;0.32;0.32;;;;;;;10.44;80.15;92475.56;5076215;28;20052;-33
2022/09/28 00:51:24;;;;;;;1.65;1.30;;;;;;;10.53;79.50;92483.19;5090823;28;20032;-33
2022/09/28 00:53:50;;;;;;;1.02;0.93;;;;;;;10.57;79.67;92480.72;5072806;28;20031;-33
2022/09/28 00:56:18;;;;;;;2.28;2.05;;;;;;;10.50;79.33;92482.28;5090778;28;20034;-33
2022/09/28 00:58:51;;;;;;;2.08;1.98;;;;;;;10.55;78.96;92486.09;5090754;28;20034;-33
2022/09/28 01:01:16;;;;;;;0.77;0.77;;;;;;;10.39;78.92;92484.84;5072474;28;20031;-33
2022/09/28 01:03:47;;;;;;;2.17;2.00;;;;;;;10.50;78.01;92485.03;5090708;28;20031;-33
2022/09/28 01:06:20;;;;;;;2.33;2.15;;;;;;;10.49;78.04;92488.38;5073471;28;20059;-33
2022/09/28 01:08:49;;;;;;;1.45;1.35;;;;;;;10.44;78.31;92483.84;5082970;28;20076;-33
2022/09/28 01:11:15;;;;;;;2.60;1.77;;;;;;;10.41;77.61;92474.69;5070417;28;20468;-33
2022/09/28 01:13:42;;;;;;;0.73;0.73;;;;;;;10.26;78.22;92474.16;5070101;28;20552;-33
2022/09/28 01:16:23;;;;;;;6.10;1.05;;;;;;;10.21;79.28;92477.88;5052374;28;20063;-33
2022/09/28 01:19:07;;;;;;;1.48;1.38;;;;;;;10.22;78.64;92480.06;5052299;28;20083;-33
2022/09/28 01:21:55;;;;;;;1.50;1.40;;;;;;;10.24;78.13;92477.47;5069995;28;20644;-33
2022/09/28 01:24:35;;;;;;;0.80;0.80;;;;;;;10.13;79.02;92483.50;5052211;28;20052;-33
2022/09/28 01:27:24;;;;;;;3.63;1.98;;;;;;;10.14;79.45;92473.91;5073312;28;20036;-33
2022/09/28 01:30:08;;;;;;;1.23;1.13;;;;;;;10.15;79.31;92483.66;5059426;28;20452;-33
2022/09/28 01:32:49;;;;;;;0.85;0.85;;;;;;;10.18;78.70;92485.25;5056164;28;20111;-33
2022/09/28 01:35:35;;;;;;;0.52;0.52;;;;;;;10.06;79.25;92473.25;5074236;28;20385;-33
2022/09/28 01:38:06;;;;;;;0.52;0.52;;;;;;;10.06;79.02;92492.56;5056047;28;20017;-33
2022/09/28 01:40:33;;;;;;;0.75;0.75;;;;;;;9.97;79.49;92495.97;5073788;28;20578;-33
2022/09/28 01:43:04;;;;;;;9.93;2.13;;;;;;;10.04;79.98;92500.66;5056272;28;20024;-33
2022/09/28 01:45:35;;;;;;;2.15;1.95;;;;;;;10.09;79.11;92501.72;5074138;28;20052;-33
2022/09/28 01:48:04;;;;;;;2.65;2.05;;;;;;;10.05;77.76;92512.44;5055847;28;20024;-33
2022/09/28 01:50:35;;;;;;;0.90;0.90;;;;;;;10.00;77.33;92503.09;5055916;28;20132;-33
2022/09/28 01:53:09;;;;;;;0.88;0.88;;;;;;;9.68;79.34;92503.97;5056144;28;20028;-33
2022/09/28 01:55:39;;;;;;;2.25;2.05;;;;;;;9.54;79.10;92500.06;5055963;28;20036;-33
2022/09/28 01:58:51;;;;;;;1.17;1.10;;;;;;;9.54;80.80;92494.53;5055637;28;20036;-33
2022/09/28 02:01:25;;;;;;;0.73;0.73;;;;;;;9.63;80.09;92498.69;4972286;28;20042;-33
2022/09/28 02:03:54;;;;;;;1.50;1.45;;;;;;;9.61;79.16;92499.28;5058089;28;20072;-33
2022/09/28 02:06:40;;;;;;;0.45;0.45;;;;;;;9.59;79.37;92506.63;5073620;28;20028;-33
2022/09/28 02:09:35;;;;;;;4.03;1.33;;;;;;;9.61;79.33;92504.03;5065077;28;20526;-33
2022/09/28 02:12:09;;;;;;;2.05;1.95;;;;;;;9.40;80.73;92489.91;5090803;28;20034;-33
2022/09/28 02:14:37;;;;;;;2.50;2.30;;;;;;;9.40;81.13;92501.63;5093691;28;20020;-33
2022/09/28 02:17:02;;;;;;;4.45;4.07;;;;;;;9.55;79.69;92506.31;5075621;28;20457;-33
2022/09/28 02:19:29;;;;;;;2.53;1.35;;;;;;;9.50;79.09;92504.50;5093578;28;20032;-33
2022/09/28 02:22:01;;;;;;;1.00;1.00;;;;;;;9.59;78.82;92509.38;5077637;28;20023;-33
2022/09/28 02:24:37;;;;;;;0.80;0.77;;;;;;;9.62;78.11;92508.97;5093522;28;20453;-33
2022/09/28 02:27:11;;;;;;;2.58;2.33;;;;;;;9.64;79.40;92514.66;5093129;28;20024;-33
2022/09/28 02:29:37;;;;;;;1.58;1.17;;;;;;;9.35;80.80;92496.38;5077691;28;20097;-33
2022/09/28 02:35:52;;;;;;;0.65;0.65;;;;;;;9.39;81.37;92504.97;4952283;27;4287957;-33
2022/09/28 02:38:17;;;;;;;0.77;0.77;;;;;;;9.33;80.71;92502.44;5080740;28;20060;-33
2022/09/28 02:40:46;;;;;;;1.70;1.55;;;;;;;9.35;80.28;92499.88;5076078;28;20027;-34
2022/09/28 02:43:24;;;;;;;1.73;1.65;;;;;;;9.25;81.20;92501.75;5083061;28;20026;-34
2022/09/28 02:46:23;;;;;;;0.70;0.70;;;;;;;9.29;81.74;92506.91;5078305;28;20132;-34
2022/09/28 02:49:13;;;;;;;1.30;1.23;;;;;;;9.30;81.63;92509.06;5052631;28;20098;-34
2022/09/28 02:52:05;;;;;;;2.88;2.67;;;;;;;9.49;81.39;92497.53;5076804;28;20531;-33
2022/09/28 02:55:11;;;;;;;0.82;0.80;;;;;;;9.42;81.72;92504.56;5047441;28;20111;-34
2022/09/28 02:58:04;;;;;;;2.05;1.95;;;;;;;9.50;81.40;92504.50;5082344;28;20097;-33
2022/09/28 03:00:31;;;;;;;0.77;0.77;;;;;;;9.39;81.72;92505.69;5078599;28;20503;-34
2022/09/28 03:03:11;;;;;;;0.47;0.47;;;;;;;9.38;81.75;92506.25;5071879;28;20050;-33
2022/09/28 03:06:27;;;;;;;1.73;1.63;;;;;;;9.57;79.48;92507.19;5080515;28;20020;-34
2022/09/28 03:09:11;;;;;;;0.28;0.28;;;;;;;9.60;78.43;92510.84;5024007;28;20060;-33
2022/09/28 03:11:41;;;;;;;1.15;1.15;;;;;;;9.50;78.26;92508.00;5082954;28;20488;-33
2022/09/28 03:14:07;;;;;;;2.20;1.65;;;;;;;9.51;77.96;92525.25;5077714;28;20024;-34
2022/09/28 03:16:32;;;;;;;1.15;1.13;;;;;;;9.43;78.35;92516.31;5073659;28;20025;-33
2022/09/28 03:18:58;;;;;;;1.55;1.05;;;;;;;9.18;79.12;92518.34;5081040;28;20504;-34
2022/09/28 03:21:23;;;;;;;0.57;0.57;;;;;;;9.18;79.38;92512.84;5079304;28;20150;-33
2022/09/28 03:23:48;;;;;;;0.98;0.93;;;;;;;9.20;78.10;92516.50;5079456;28;20048;-33
2022/09/28 03:26:15;;;;;;;0.30;0.30;;;;;;;9.29;77.55;92513.13;5083618;28;20031;-33
2022/09/28 03:28:41;;;;;;;1.38;0.75;;;;;;;9.12;77.74;92521.31;5083779;28;20035;-33
2022/09/28 03:31:07;;;;;;;4.00;3.22;;;;;;;9.07;77.51;92525.06;5085147;28;20024;-33
2022/09/28 03:33:32;;;;;;;0.45;0.45;;;;;;;9.09;76.92;92517.69;5076796;28;20570;-33
2022/09/28 03:35:57;;;;;;;0.57;0.57;;;;;;;9.18;77.03;92530.13;5102991;28;20104;-34
2022/09/28 03:38:23;;;;;;;2.05;1.85;;;;;;;9.01;77.32;92521.75;5105627;28;20023;-34
2022/09/28 03:40:56;;;;;;;1.52;1.48;;;;;;;9.09;77.65;92531.47;5102279;28;20069;-33
2022/09/28 03:43:21;;;;;;;4.43;1.98;;;;;;;9.01;78.33;92533.50;5094910;28;20027;-34
2022/09/28 03:45:54;;;;;;;2.65;1.10;;;;;;;8.98;79.08;92528.41;5099711;28;20093;-33
2022/09/28 03:48:31;;;;;;;2.33;1.88;;;;;;;8.95;79.78;92529.50;5088256;28;20108;-34
2022/09/28 03:51:02;;;;;;;0.52;0.52;;;;;;;8.93;79.26;92526.59;5091094;28;20039;-33
2022/09/28 03:53:28;;;;;;;4.78;1.38;;;;;;;8.85;79.51;92534.91;5092339;28;20030;-34
2022/09/28 03:55:54;;;;;;;3.72;3.50;;;;;;;8.95;79.27;92537.78;5091684;28;20036;-33
2022/09/28 03:58:20;;;;;;;0.30;0.30;;;;;;;9.01;79.54;92536.25;5084972;28;20051;-34
2022/09/28 04:00:46;;;;;;;0.75;0.75;;;;;;;9.10;79.65;92537.69;5092306;28;20032;-33
2022/09/28 04:03:12;;;;;;;1.48;0.57;;;;;;;8.91;80.52;92532.66;5089457;28;20154;-33
2022/09/28 04:05:37;;;;;;;0.35;0.35;;;;;;;8.95;81.92;92535.03;5085484;28;20107;-33
2022/09/28 04:08:03;;;;;;;0.63;0.63;;;;;;;8.96;81.59;92534.47;5085426;28;20043;-34
2022/09/28 04:10:29;;;;;;;2.90;2.60;;;;;;;9.00;81.57;92528.56;5091547;28;20020;-34
2022/09/28 04:12:55;;;;;;;0.47;0.47;;;;;;;8.97;81.70;92530.41;5083197;28;20476;-34
2022/09/28 04:15:24;;;;;;;0.82;0.82;;;;;;;9.08;81.68;92537.50;5088502;28;20419;-33
2022/09/28 04:17:50;;;;;;;0.40;0.40;;;;;;;8.96;82.46;92526.22;5080078;28;20024;-33
2022/09/28 04:20:16;;;;;;;1.50;1.50;;;;;;;9.10;81.81;92541.16;5089148;28;20054;-33
2022/09/28 04:22:42;;;;;;;0.65;0.65;;;;;;;9.15;81.60;92531.97;5087159;28;20022;-34
2022/09/28 04:25:07;;;;;;;0.90;0.90;;;;;;;9.09;81.78;92536.22;5087848;28;20020;-34
2022/09/28 04:30:17;;;;;;;1.63;1.52;;;;;;;9.08;80.50;92532.75;5087978;28;20058;-34
2022/09/28 04:32:46;;;;;;;0.50;0.50;;;;;;;9.11;80.53;92537.13;5090205;28;20467;-34
2022/09/28 04:35:11;;;;;;;1.65;1.55;;;;;;;9.16;79.80;92530.66;5091236;28;20048;-34
2022/09/28 04:37:37;;;;;;;0.40;0.40;;;;;;;9.15;79.71;92529.22;5085870;28;20067;-34
2022/09/28 04:40:02;;;;;;;1.45;1.35;;;;;;;9.13;80.16;92531.06;5090165;28;20232;-34
2022/09/28 04:42:28;;;;;;;0.85;0.82;;;;;;;9.15;79.95;92525.72;5083404;28;20024;-34
2022/09/28 04:44:55;;;;;;;0.70;0.70;;;;;;;9.13;80.40;92518.03;5088694;28;20024;-33
2022/09/28 04:47:21;;;;;;;2.13;1.02;;;;;;;9.05;80.96;92522.84;5090776;28;20135;-34
2022/09/28 04:49:46;;;;;;;0.70;0.70;;;;;;;9.16;81.00;92527.16;5085180;28;20484;-34
2022/09/28 04:52:12;;;;;;;1.60;1.50;;;;;;;9.23;81.40;92529.13;5084849;28;20028;-34
2022/09/28 04:54:37;;;;;;;1.38;1.33;;;;;;;9.18;81.58;92536.31;5086925;28;20515;-33
2022/09/28 04:57:04;;;;;;;1.48;1.38;;;;;;;9.18;81.02;92512.84;5084818;28;20028;-33
2022/09/28 04:59:30;;;;;;;2.28;2.17;;;;;;;9.35;81.05;92526.66;5090967;28;20032;-34
2022/09/28 05:01:55;;;;;;;1.23;1.13;;;;;;;9.39;80.76;92525.00;5090254;28;20024;-34
2022/09/28 05:04:21;;;;;;;0.73;0.73;;;;;;;9.54;79.39;92535.88;5080947;28;20008;-34
2022/09/28 05:06:46;;;;;;;2.33;2.15;;;;;;;9.58;78.89;92529.97;5085598;28;20027;-34
2022/09/28 05:09:12;;;;;;;1.40;1.30;;;;;;;9.55;80.13;92528.34;5090477;28;20035;-34
2022/09/28 05:11:37;;;;;;;3.33;2.40;;;;;;;9.55;80.56;92528.34;5087216;28;20028;-34
2022/09/28 05:14:04;;;;;;;0.45;0.45;;;;;;;9.55;80.65;92529.06;5089188;28;20028;-34
2022/09/28 05:16:32;;;;;;;0.60;0.60;;;;;;;9.59;80.16;92532.16;5089596;28;20496;-34
2022/09/28 05:18:58;;;;;;;4.05;1.33;;;;;;;9.61;80.22;92539.88;5083011;28;20040;-34
2022/09/28 05:21:25;;;;;;;1.55;1.52;;;;;;;9.61;80.05;92539.88;5084776;28;20125;-33
2022/09/28 05:23:51;;;;;;;0.55;0.55;;;;;;;9.58;80.62;92532.72;5083401;28;20033;-34
2022/09/28 05:26:16;;;;;;;0.30;0.30;;;;;;;9.37;81.91;92535.09;5088533;28;20027;-34
2022/09/28 05:28:43;;;;;;;0.95;0.95;;;;;;;9.53;82.52;92545.44;5086316;28;20062;-33
2022/09/28 05:31:09;;;;;;;0.80;0.80;;;;;;;9.28;82.20;92527.47;5089711;28;20150;-34
2022/09/28 05:33:35;;;;;;;2.60;2.40;;;;;;;9.25;82.85;92532.06;5085334;28;20104;-34
2022/09/28 05:36:00;;;;;;;1.75;1.65;;;;;;;9.48;83.54;92545.66;5083159;28;20448;-33
2022/09/28 05:38:26;;;;;;;1.15;1.05;;;;;;;9.54;82.16;92526.88;5070840;28;20028;-34
2022/09/28 05:40:51;;;;;;;3.35;3.15;;;;;;;9.45;82.92;92535.75;5070806;28;20033;-34
2022/09/28 05:43:17;;;;;;;0.38;0.38;;;;;;;9.29;83.39;92521.38;5070812;28;20104;-33
2022/09/28 05:45:43;;;;;;;2.67;2.58;;;;;;;9.57;84.51;92537.50;5052342;28;20028;-34
2022/09/28 05:48:08;;;;;;;1.10;1.10;;;;;;;9.77;84.41;92521.88;5070986;28;20028;-33
2022/09/28 05:50:34;;;;;;;1.00;1.00;;;;;;;9.96;82.35;92533.13;5070622;28;20028;-34
2022/09/28 05:53:01;;;;;;;0.85;0.85;;;;;;;10.07;80.95;92531.91;5070712;28;20036;-34
2022/09/28 05:55:27;;;;;;;2.45;2.30;;;;;;;10.18;81.27;92539.72;5070525;28;20025;-34
2022/09/28 05:57:52;;;;;;;2.58;2.38;;;;;;;10.37;82.29;92540.56;5070593;28;20107;-34
2022/09/28 06:00:18;;;;;;;1.98;1.75;;;;;;;10.43;81.71;92552.13;5070821;28;20021;-34
2022/09/28 06:02:43;;;;;;;1.40;1.40;;;;;;;10.62;81.94;92554.28;5070770;28;20411;-34
2022/09/28 06:05:09;;;;;;;0.30;0.30;;;;;;;10.77;81.36;92556.13;5070495;28;20035;-34
2022/09/28 06:07:34;;;;;;;0.40;0.40;;;;;;;11.02;81.00;92554.66;5080114;28;20138;-34
2022/09/28 06:10:00;;;;;;;2.13;2.00;;;;;;;11.36;81.36;92556.59;5090706;28;20483;-34
2022/09/28 06:12:26;;;;;;;1.80;1.70;;;;;;;11.64;80.17;92555.97;5090611;28;20425;-34
2022/09/28 06:14:52;;;;;;;1.00;1.00;;;;;;;11.94;78.13;92563.81;5090518;28;20488;-34
2022/09/28 06:17:17;;;;;;;0.20;0.20;;;;;;;12.21;77.34;92554.69;5090810;28;20054;-34
2022/09/28 06:19:43;;;;;;;0.20;0.20;;;;;;;12.57;76.56;92557.31;5088919;28;20085;-34
2022/09/28 06:22:08;;;;;;;0.47;0.47;;;;;;;12.94;75.54;92556.56;5070481;28;20410;-34
2022/09/28 06:24:33;;;;;;;0.63;0.63;;;;;;;13.03;73.75;92518.31;5070218;28;20111;-34
2022/09/28 06:26:59;;;;;;;0.45;0.45;;;;;;;13.66;71.93;92557.41;5071068;28;20081;-34
2022/09/28 06:29:24;;;;;;;0.30;0.30;;;;;;;14.05;71.35;92558.69;5076728;28;20047;-34
2022/09/28 06:31:50;;;;;;;0.68;0.68;;;;;;;14.57;68.94;92563.47;5070280;28;20021;-34
2022/09/28 06:34:16;;;;;;;0.32;0.32;;;;;;;15.06;67.08;92557.66;5070192;28;20048;-34
2022/09/28 06:36:41;;;;;;;0.38;0.38;;;;;;;15.70;65.01;92557.44;5070155;28;20102;-34
2022/09/28 06:39:07;;;;;;;1.95;1.85;;;;;;;16.55;62.68;92549.28;5070290;28;20048;-34
2022/09/28 06:41:32;;;;;;;0.30;0.30;;;;;;;17.58;60.12;92561.38;5070351;28;20411;-34
2022/09/28 06:43:57;;;;;;;0.75;0.75;;;;;;;18.52;57.07;92560.03;5070064;28;20503;-34
2022/09/28 06:46:24;;;;;;;0.30;0.30;;;;;;;19.43;54.65;92551.22;5052117;28;20043;-34
2022/09/28 06:48:50;;;;;;;0.82;0.73;;;;;;;20.18;53.27;92554.66;5070074;28;20036;-34
2022/09/28 06:51:15;;;;;;;0.43;0.43;;;;;;;20.99;50.70;92551.16;5070321;28;20055;-34
2022/09/28 06:53:40;;;;;;;0.50;0.50;;;;;;;21.45;48.89;92555.16;5070228;28;20409;-34
2022/09/28 06:56:10;;;;;;;2.85;0.73;;;;;;;21.94;48.46;92551.44;5070200;28;20021;-34
2022/09/28 06:58:35;;;;;;;0.73;0.73;;;;;;;22.28;46.70;92553.44;5069935;28;20565;-34
2022/09/28 07:01:01;;;;;;;1.27;0.75;;;;;;;22.72;46.80;92562.75;5070032;28;20029;-34
2022/09/28 07:03:27;;;;;;;0.10;0.10;;;;;;;22.88;45.53;92543.63;5076514;28;20032;-34
2022/09/28 07:05:53;;;;;;;0.30;0.30;;;;;;;23.40;45.13;92547.50;5090402;28;20518;-34
2022/09/28 07:08:23;;;;;;;4.18;1.55;;;;;;;23.78;45.71;92553.63;5090321;28;20039;-34
2022/09/28 07:10:55;;;;;;;0.10;0.10;;;;;;;24.04;44.64;92562.88;5090061;28;20035;-34
2022/09/28 07:13:22;;;;;;;0.20;0.20;;;;;;;24.29;43.83;92558.72;5090406;28;20443;-35
2022/09/28 07:15:48;;;;;;;0.10;0.10;;;;;;;24.59;44.07;92551.09;5090242;28;20104;-34
2022/09/28 07:18:13;;;;;;;0.73;0.73;;;;;;;25.18;44.37;92550.59;5090238;28;20039;-35
2022/09/28 07:20:39;;;;;;;0.20;0.20;;;;;;;25.71;44.33;92558.31;5080939;28;20024;-34
2022/09/28 07:23:09;;;;;;;0.00;0.00;;;;;;;26.21;43.17;92573.63;5073555;28;20165;-34
2022/09/28 07:25:36;;;;;;;0.30;0.30;;;;;;;26.61;42.20;92573.78;5080607;28;20040;-35
2022/09/28 07:28:03;;;;;;;2.60;0.68;;;;;;;27.24;39.61;92576.50;5091679;28;20016;-33
2022/09/28 07:30:32;;;;;;;0.70;0.50;;;;;;;26.96;37.68;92573.81;5055458;28;20028;-33
2022/09/28 07:32:58;;;;;;;0.30;0.30;;;;;;;27.61;35.82;92572.22;5073624;28;20085;-33
2022/09/28 07:35:24;;;;;;;0.10;0.10;;;;;;;28.45;36.71;92569.97;5072897;28;20121;-33
2022/09/28 07:37:58;;;;;;;0.00;0.00;;;;;;;29.32;35.14;92574.66;5073570;28;20115;-33
2022/09/28 07:43:07;;;;;;;0.00;0.00;;;;;;;30.01;34.20;92564.63;5073487;28;20075;-33
2022/09/28 07:45:34;;;;;;;0.10;0.10;;;;;;;30.68;32.41;92560.09;5073043;28;20028;-33
2022/09/28 07:48:00;;;;;;;0.25;0.25;;;;;;;31.52;31.23;92559.75;5073325;28;20040;-33
2022/09/28 07:50:25;;;;;;;0.00;0.00;;;;;;;32.43;29.06;92560.50;5073004;28;20411;-33
2022/09/28 07:52:51;;;;;;;0.00;0.00;;;;;;;32.82;28.86;92569.72;5073367;28;20028;-33
2022/09/28 07:55:17;;;;;;;0.00;0.00;;;;;;;32.39;28.20;92568.38;5072759;28;20028;-33
2022/09/28 07:57:45;;;;;;;0.00;0.00;;;;;;;32.38;28.22;92566.94;5073199;28;20202;-33
2022/09/28 08:00:11;;;;;;;;;;;;;;;32.76;26.15;92561.91;5073706;28;20055;-34
2022/09/28 08:02:37;;;;;;;0.00;0.00;;;;;;;33.15;28.53;92558.91;5072998;28;20313;-33
2022/09/28 08:05:02;;;;;;;0.63;0.63;;;;;;;33.36;26.37;92555.25;5072829;28;20023;-34
2022/09/28 08:07:28;;;;;;;0.00;0.00;;;;;;;31.59;26.90;92558.34;5072912;28;20112;-34
2022/09/28 08:09:53;;;;;;;0.10;0.10;;;;;;;31.39;29.96;92558.25;5072644;28;20020;-33
2022/09/28 08:12:19;;;;;;;1.27;0.90;;;;;;;31.24;29.13;92560.38;5072629;28;20025;-33
2022/09/28 08:14:46;;;;;;;0.75;0.75;;;;;;;31.70;29.49;92559.06;5055019;28;20025;-33
2022/09/28 08:17:11;;;;;;;0.20;0.20;;;;;;;32.33;28.52;92574.81;5072649;28;20089;-33
2022/09/28 08:22:21;;;;;;;0.10;0.10;;;;;;;32.04;28.40;92559.09;5093037;28;20097;-33
2022/09/28 08:24:47;;;;;;;0.00;0.00;;;;;;;31.99;26.69;92569.81;5092045;28;20020;-33
2022/09/28 08:27:14;;;;;;;0.20;0.20;;;;;;;30.33;28.64;92564.88;5072361;28;20023;-33
2022/09/28 08:29:39;;;;;;;0.40;0.40;;;;;;;30.16;28.44;92562.59;5072466;28;20043;-33
2022/09/28 08:32:06;;;;;;;0.08;0.08;;;;;;;29.49;29.57;92556.34;5072101;28;20025;-33
2022/09/28 08:34:34;;;;;;;0.10;0.10;;;;;;;30.16;28.76;92554.06;5072169;28;20048;-33
2022/09/28 08:36:59;;;;;;;0.10;0.10;;;;;;;29.70;29.66;92554.38;5087577;28;20032;-33
2022/09/28 08:39:25;;;;;;;0.10;0.10;;;;;;;30.09;28.58;92549.72;5092379;28;20097;-33
2022/09/28 08:42:01;;;;;;;0.30;0.30;;;;;;;30.88;28.44;92554.53;5092337;28;20031;-33
2022/09/28 08:44:30;;;;;;;0.00;0.00;;;;;;;30.25;28.86;92564.81;5074300;28;20541;-33
2022/09/28 08:47:00;;;;;;;0.10;0.10;;;;;;;30.22;28.49;92540.56;5074181;28;20040;-33
2022/09/28 08:49:29;;;;;;;0.65;0.65;;;;;;;30.68;27.96;92557.25;5074519;28;20103;-34
2022/09/28 08:51:59;;;;;;;0.10;0.10;;;;;;;30.22;28.62;92554.81;5092389;28;20452;-33
2022/09/28 08:54:34;;;;;;;0.00;0.00;;;;;;;30.98;27.64;92568.81;5074211;28;20444;-33
2022/09/28 08:57:16;;;;;;;0.05;0.05;;;;;;;31.40;27.39;92563.28;5092014;28;20488;-34
2022/09/28 08:59:46;;;;;;;0.30;0.30;;;;;;;32.08;26.81;92567.66;5067573;28;20451;-34
2022/09/28 09:02:19;;;;;;;1.02;0.95;;;;;;;32.86;25.89;92564.72;5071724;28;20597;-34
2022/09/28 09:04:44;;;;;;;1.88;1.00;;;;;;;32.63;24.42;92565.50;5071940;28;20122;-34
2022/09/28 09:07:29;;;;;;;3.95;1.55;;;;;;;32.14;25.66;92561.94;5071582;28;20126;-33
2022/09/28 09:09:57;;;;;;;0.00;0.00;;;;;;;31.54;26.10;92559.03;5071838;28;20545;-33
2022/09/28 09:12:50;;;;;;;1.35;0.75;;;;;;;31.85;25.81;92554.78;5071759;28;20132;-34
2022/09/28 09:15:26;;;;;;;1.08;0.30;;;;;;;31.53;26.33;92563.31;5071606;28;20036;-33
2022/09/28 09:18:03;;;;;;;0.03;0.03;;;;;;;32.44;25.91;92567.66;5071419;28;20539;-34
2022/09/28 09:20:57;;;;;;;0.03;0.03;;;;;;;33.10;26.29;92563.22;5071363;28;20020;-34
2022/09/28 09:23:53;;;;;;;0.25;0.25;;;;;;;33.56;25.95;92560.16;5071172;28;20028;-34
2022/09/28 09:26:21;;;;;;;1.13;0.35;;;;;;;33.85;25.64;92564.25;5053334;28;20024;-34
2022/09/28 09:29:21;;;;;;;0.37;0.20;;;;;;;34.62;24.07;92567.25;5053262;28;20060;-34
2022/09/28 09:31:48;;;;;;;0.15;0.15;;;;;;;34.98;23.43;92558.25;5038620;28;20075;-34
2022/09/28 09:34:36;;;;;;;0.05;0.05;;;;;;;35.32;23.32;92560.06;5071040;28;20128;-34
2022/09/28 09:37:33;;;;;;;0.00;0.00;;;;;;;34.70;23.27;92566.47;5086884;28;20028;-34
2022/09/28 09:39:58;;;;;;;0.05;0.05;;;;;;;35.21;22.68;92569.50;5073484;28;20028;-34
2022/09/28 09:42:28;;;;;;;0.00;0.00;;;;;;;35.64;21.82;92576.16;5091133;28;20063;-34
2022/09/28 09:45:06;;;;;;;0.00;0.00;;;;;;;35.73;22.83;92572.44;5090589;28;20039;-34
2022/09/28 09:47:38;;;;;;;0.10;0.10;;;;;;;35.50;22.24;92574.19;5073289;28;20024;-34
2022/09/28 09:50:18;;;;;;;0.00;0.00;;;;;;;36.18;21.79;92569.66;5073263;28;20147;-34
2022/09/28 09:52:47;;;;;;;0.00;0.00;;;;;;;35.95;22.40;92576.44;5090925;28;20071;-34
2022/09/28 09:55:23;;;;;;;0.00;0.00;;;;;;;35.99;21.97;92579.28;5090658;28;20156;-34
2022/09/28 09:58:09;;;;;;;0.60;0.60;;;;;;;36.50;21.97;92577.03;5070965;28;20104;-34
2022/09/28 10:00:37;;;;;;;0.00;0.00;;;;;;;36.65;21.49;92560.97;5070897;28;20032;-34
2022/09/28 10:03:02;;;;;;;0.00;0.00;;;;;;;36.22;20.26;92575.31;5070680;28;20033;-34
2022/09/28 10:05:29;;;;;;;0.00;0.00;;;;;;;36.74;21.28;92573.03;5052929;28;20027;-34
2022/09/28 10:08:07;;;;;;;0.23;0.23;;;;;;;36.28;20.77;92580.97;5052919;28;20024;-34
2022/09/28 10:10:47;;;;;;;0.10;0.10;;;;;;;36.13;22.17;92564.69;5070481;28;20074;-34
2022/09/28 10:13:13;;;;;;;0.15;0.15;;;;;;;35.26;22.39;92560.09;5070817;28;20511;-34
2022/09/28 10:15:40;;;;;;;0.10;0.10;;;;;;;35.56;21.16;92548.25;5070304;28;20058;-34
2022/09/28 10:18:10;;;;;;;0.10;0.10;;;;;;;36.28;20.58;92560.13;5052842;28;20028;-34
2022/09/28 10:20:40;;;;;;;0.00;0.00;;;;;;;36.22;21.90;92560.22;5052852;28;20028;-34
2022/09/28 10:23:21;;;;;;;0.00;0.00;;;;;;;36.77;21.01;92549.25;5052409;28;20040;-33
2022/09/28 10:25:50;;;;;;;0.03;0.03;;;;;;;36.24;21.70;92551.56;5061089;28;20034;-34
2022/09/28 10:28:21;;;;;;;0.70;0.22;;;;;;;36.45;20.21;92539.03;5068439;28;20103;-34
2022/09/28 10:30:47;;;;;;;0.00;0.00;;;;;;;36.34;20.69;92554.31;5052408;28;20027;-34
2022/09/28 10:33:28;;;;;;;0.10;0.10;;;;;;;36.73;21.69;92542.88;5052395;28;20025;-34
2022/09/28 10:35:54;;;;;;;0.00;0.00;;;;;;;37.03;21.28;92542.31;5052028;28;20117;-34
2022/09/28 10:38:59;;;;;;;0.00;0.00;;;;;;;37.03;19.08;92537.28;4855911;27;7470166;-33
2022/09/28 10:41:24;;;;;;;0.30;0.30;;;;;;;36.75;19.68;92537.06;5108097;28;20576;-33
2022/09/28 10:44:07;;;;;;;0.00;0.00;;;;;;;36.80;20.94;92535.50;5090252;28;20314;-33
2022/09/28 10:46:33;;;;;;;0.00;0.00;;;;;;;36.54;21.07;92542.47;5108216;28;20023;-33
2022/09/28 10:49:05;;;;;;;0.00;0.00;;;;;;;36.15;20.00;92548.13;5108074;28;20499;-33
2022/09/28 10:51:40;;;;;;;1.45;0.60;;;;;;;34.55;21.48;92533.63;5107919;28;20096;-33
2022/09/28 10:54:13;;;;;;;0.00;0.00;;;;;;;34.81;21.74;92530.50;5107090;28;20442;-33
2022/09/28 10:56:40;;;;;;;0.28;0.28;;;;;;;34.89;21.39;92507.47;5107871;28;20565;-33
2022/09/28 10:59:41;;;;;;;0.03;0.03;;;;;;;34.69;22.38;92522.75;5107876;28;20059;-33
2022/09/28 11:02:35;;;;;;;0.35;0.35;;;;;;;34.79;22.12;92514.03;5025011;28;20099;-33
2022/09/28 11:05:03;;;;;;;0.00;0.00;;;;;;;35.43;21.60;92512.53;5106434;28;20050;-33
2022/09/28 11:07:31;;;;;;;0.10;0.10;;;;;;;35.60;20.85;92516.63;5107736;28;20103;-33
2022/09/28 11:09:57;;;;;;;0.52;0.52;;;;;;;35.41;22.05;92514.72;5106798;28;20516;-33
2022/09/28 11:12:41;;;;;;;0.08;0.03;;;;;;;35.43;20.69;92512.53;5107598;28;20098;-33
2022/09/28 11:15:07;;;;;;;0.00;0.00;;;;;;;35.78;20.81;92501.28;5107593;28;20035;-33
2022/09/28 11:17:39;;;;;;;0.25;0.25;;;;;;;35.87;18.81;92508.31;5106203;28;20028;-33
2022/09/28 11:20:23;;;;;;;0.00;0.00;;;;;;;35.65;21.61;92497.16;5105646;28;20126;-33
2022/09/28 11:22:52;;;;;;;0.00;0.00;;;;;;;34.96;20.18;92491.59;5107590;28;20031;-33
2022/09/28 11:25:18;;;;;;;0.00;0.00;;;;;;;35.06;21.75;92482.91;5088761;28;20023;-33
2022/09/28 11:28:00;;;;;;;0.10;0.10;;;;;;;34.32;21.45;92484.41;5107369;28;20023;-33
2022/09/28 11:30:33;;;;;;;0.52;0.52;;;;;;;33.75;22.91;92489.88;5068803;28;20085;-33
2022/09/28 11:33:04;;;;;;;3.40;0.22;;;;;;;33.54;24.27;92482.91;5086844;28;20063;-33
2022/09/28 11:35:30;;;;;;;0.15;0.15;;;;;;;33.31;24.38;92487.31;5071571;28;20020;-33
2022/09/28 11:38:14;;;;;;;4.28;0.70;;;;;;;33.02;24.40;92486.03;5106725;28;20515;-33
2022/09/28 11:41:03;;;;;;;0.25;0.25;;;;;;;33.55;24.17;92492.88;5107336;28;20028;-33
2022/09/28 11:43:28;;;;;;;;;;;;;;;33.56;24.68;92480.72;5096320;28;20035;-33
2022/09/28 11:45:59;;;;;;;0.00;0.00;;;;;;;33.46;24.03;92483.63;5107077;28;20282;-33
2022/09/28 11:48:52;;;;;;;0.10;0.10;;;;;;;33.30;24.72;92486.59;5104218;28;20016;-33
2022/09/28 11:51:22;;;;;;;0.45;0.30;;;;;;;32.70;24.29;92481.84;5064852;28;20032;-33
2022/09/28 11:54:13;;;;;;;0.10;0.10;;;;;;;31.84;24.53;92496.25;5074924;28;20067;-33
2022/09/28 11:56:45;;;;;;;1.08;0.68;;;;;;;31.73;24.24;92489.84;5075370;28;20024;-32
2022/09/28 11:59:12;;;;;;;0.03;0.03;;;;;;;31.71;26.58;92489.84;5093077;28;20028;-33
2022/09/28 12:01:50;;;;;;;0.00;0.00;;;;;;;31.58;26.34;92493.41;5058183;28;20051;-33
2022/09/28 12:04:21;;;;;;;;;;;;;;;31.70;26.54;92496.28;5075528;28;20024;-33
2022/09/28 12:07:02;;;;;;;1.30;0.70;;;;;;;30.89;27.16;92490.38;5093505;28;19908;-32